sensor_id;sensor_type;location;lat;lon;timestamp;pressure;altitude;pressure_sealevel;temperature
25514;BMP180;48128;54.242;10.280;2022-09-12T00:02:17;101415.00;;;9.90
25514;BMP180;48128;54.242;10.280;2022-09-12T00:04:44;101417.00;;;9.90
25514;BMP180;48128;54.242;10.280;2022-09-12T00:07:10;101426.00;;;9.90
25514;BMP180;48128;54.242;10.280;2022-09-12T00:09:37;101419.00;;;9.80
25514;BMP180;48128;54.242;10.280;2022-09-12T00:12:04;101418.00;;;9.80
25514;BMP180;48128;54.242;10.280;2022-09-12T00:14:34;101417.00;;;9.80
25514;BMP180;48128;54.242;10.280;2022-09-12T00:17:01;101412.00;;;9.80
25514;BMP180;48128;54.242;10.280;2022-09-12T00:19:28;101408.00;;;9.80
25514;BMP180;48128;54.242;10.280;2022-09-12T00:21:55;101412.00;;;9.90
25514;BMP180;48128;54.242;10.280;2022-09-12T00:24:22;101411.00;;;9.80
25514;BMP180;48128;54.242;10.280;2022-09-12T00:26:49;101404.00;;;9.80
25514;BMP180;48128;54.242;10.280;2022-09-12T00:29:17;101406.00;;;9.80
25514;BMP180;48128;54.242;10.280;2022-09-12T00:31:45;101394.00;;;9.80
25514;BMP180;48128;54.242;10.280;2022-09-12T00:34:12;101400.00;;;9.80
25514;BMP180;48128;54.242;10.280;2022-09-12T00:36:40;101405.00;;;9.80
25514;BMP180;48128;54.242;10.280;2022-09-12T00:39:07;101404.00;;;9.70
25514;BMP180;48128;54.242;10.280;2022-09-12T00:41:36;101404.00;;;9.70
25514;BMP180;48128;54.242;10.280;2022-09-12T00:49:17;101403.00;;;9.50
25514;BMP180;48128;54.242;10.280;2022-09-12T00:51:49;101414.00;;;9.50
25514;BMP180;48128;54.242;10.280;2022-09-12T00:54:20;101409.00;;;9.50
25514;BMP180;48128;54.242;10.280;2022-09-12T00:56:48;101410.00;;;9.40
25514;BMP180;48128;54.242;10.280;2022-09-12T00:59:21;101409.00;;;9.40
25514;BMP180;48128;54.242;10.280;2022-09-12T01:01:51;101411.00;;;9.40
25514;BMP180;48128;54.242;10.280;2022-09-12T01:04:20;101402.00;;;9.40
25514;BMP180;48128;54.242;10.280;2022-09-12T01:06:47;101392.00;;;9.40
25514;BMP180;48128;54.242;10.280;2022-09-12T01:09:17;101401.00;;;9.40
25514;BMP180;48128;54.242;10.280;2022-09-12T01:11:44;101394.00;;;9.40
25514;BMP180;48128;54.242;10.280;2022-09-12T01:14:13;101387.00;;;9.40
25514;BMP180;48128;54.242;10.280;2022-09-12T01:16:41;101382.00;;;9.30
25514;BMP180;48128;54.242;10.280;2022-09-12T01:33:59;101376.00;;;9.30
25514;BMP180;48128;54.242;10.280;2022-09-12T01:36:56;101379.00;;;9.20
25514;BMP180;48128;54.242;10.280;2022-09-12T01:45:00;101387.00;;;9.10
25514;BMP180;48128;54.242;10.280;2022-09-12T01:47:49;101383.00;;;9.10
25514;BMP180;48128;54.242;10.280;2022-09-12T01:50:26;101384.00;;;9.10
25514;BMP180;48128;54.242;10.280;2022-09-12T01:53:31;101374.00;;;9.10
25514;BMP180;48128;54.242;10.280;2022-09-12T01:56:12;101382.00;;;9.10
25514;BMP180;48128;54.242;10.280;2022-09-12T01:58:49;101377.00;;;9.10
25514;BMP180;48128;54.242;10.280;2022-09-12T02:01:21;101365.00;;;9.10
25514;BMP180;48128;54.242;10.280;2022-09-12T02:04:39;101356.00;;;9.10
25514;BMP180;48128;54.242;10.280;2022-09-12T02:06:58;101344.00;;;9.10
25514;BMP180;48128;54.242;10.280;2022-09-12T02:09:34;101350.00;;;9.00
25514;BMP180;48128;54.242;10.280;2022-09-12T02:12:03;101345.00;;;9.00
25514;BMP180;48128;54.242;10.280;2022-09-12T02:14:35;101345.00;;;9.00
25514;BMP180;48128;54.242;10.280;2022-09-12T02:17:14;101347.00;;;9.00
25514;BMP180;48128;54.242;10.280;2022-09-12T02:19:45;101342.00;;;9.00
25514;BMP180;48128;54.242;10.280;2022-09-12T02:22:14;101339.00;;;9.00
25514;BMP180;48128;54.242;10.280;2022-09-12T02:24:44;101339.00;;;8.90
25514;BMP180;48128;54.242;10.280;2022-09-12T02:27:32;101336.00;;;8.90
25514;BMP180;48128;54.242;10.280;2022-09-12T02:30:06;101342.00;;;8.80
25514;BMP180;48128;54.242;10.280;2022-09-12T02:32:42;101346.00;;;8.80
25514;BMP180;48128;54.242;10.280;2022-09-12T02:35:32;101337.00;;;8.70
25514;BMP180;48128;54.242;10.280;2022-09-12T02:38:19;101342.00;;;8.80
25514;BMP180;48128;54.242;10.280;2022-09-12T02:40:47;101342.00;;;8.80
25514;BMP180;48128;54.242;10.280;2022-09-12T02:43:14;101339.00;;;8.80
25514;BMP180;48128;54.242;10.280;2022-09-12T02:45:41;101339.00;;;8.80
25514;BMP180;48128;54.242;10.280;2022-09-12T02:50:42;101324.00;;;8.70
25514;BMP180;48128;54.242;10.280;2022-09-12T02:53:09;101332.00;;;8.70
25514;BMP180;48128;54.242;10.280;2022-09-12T02:55:36;101328.00;;;8.70
25514;BMP180;48128;54.242;10.280;2022-09-12T02:58:08;101330.00;;;8.70
25514;BMP180;48128;54.242;10.280;2022-09-12T03:01:09;101327.00;;;8.70
25514;BMP180;48128;54.242;10.280;2022-09-12T03:06:34;101340.00;;;8.70
25514;BMP180;48128;54.242;10.280;2022-09-12T03:14:34;101340.00;;;8.70
25514;BMP180;48128;54.242;10.280;2022-09-12T03:17:09;101332.00;;;8.60
25514;BMP180;48128;54.242;10.280;2022-09-12T03:27:36;101334.00;;;8.60
25514;BMP180;48128;54.242;10.280;2022-09-12T03:30:05;101325.00;;;8.60
25514;BMP180;48128;54.242;10.280;2022-09-12T03:32:39;101329.00;;;8.60
25514;BMP180;48128;54.242;10.280;2022-09-12T03:35:06;101326.00;;;8.60
25514;BMP180;48128;54.242;10.280;2022-09-12T03:37:33;101330.00;;;8.60
25514;BMP180;48128;54.242;10.280;2022-09-12T03:40:00;101329.00;;;8.50
25514;BMP180;48128;54.242;10.280;2022-09-12T03:42:27;101317.00;;;8.50
25514;BMP180;48128;54.242;10.280;2022-09-12T03:44:54;101325.00;;;8.50
25514;BMP180;48128;54.242;10.280;2022-09-12T03:47:21;101323.00;;;8.50
25514;BMP180;48128;54.242;10.280;2022-09-12T03:49:48;101318.00;;;8.50
25514;BMP180;48128;54.242;10.280;2022-09-12T03:52:15;101332.00;;;8.60
25514;BMP180;48128;54.242;10.280;2022-09-12T03:54:42;101321.00;;;8.60
25514;BMP180;48128;54.242;10.280;2022-09-12T03:57:09;101332.00;;;8.50
25514;BMP180;48128;54.242;10.280;2022-09-12T03:59:36;101328.00;;;8.50
25514;BMP180;48128;54.242;10.280;2022-09-12T04:02:03;101326.00;;;8.40
25514;BMP180;48128;54.242;10.280;2022-09-12T04:04:30;101339.00;;;8.40
25514;BMP180;48128;54.242;10.280;2022-09-12T04:06:57;101340.00;;;8.30
25514;BMP180;48128;54.242;10.280;2022-09-12T04:09:24;101338.00;;;8.30
25514;BMP180;48128;54.242;10.280;2022-09-12T04:11:51;101346.00;;;8.30
25514;BMP180;48128;54.242;10.280;2022-09-12T04:14:18;101329.00;;;8.20
25514;BMP180;48128;54.242;10.280;2022-09-12T04:16:44;101345.00;;;8.20
25514;BMP180;48128;54.242;10.280;2022-09-12T04:19:11;101330.00;;;8.20
25514;BMP180;48128;54.242;10.280;2022-09-12T04:21:38;101326.00;;;8.20
25514;BMP180;48128;54.242;10.280;2022-09-12T04:24:05;101336.00;;;8.20
25514;BMP180;48128;54.242;10.280;2022-09-12T04:26:32;101334.00;;;8.10
25514;BMP180;48128;54.242;10.280;2022-09-12T04:28:59;101328.00;;;8.10
25514;BMP180;48128;54.242;10.280;2022-09-12T04:31:26;101316.00;;;8.10
25514;BMP180;48128;54.242;10.280;2022-09-12T04:33:57;101317.00;;;8.10
25514;BMP180;48128;54.242;10.280;2022-09-12T04:36:25;101310.00;;;8.10
25514;BMP180;48128;54.242;10.280;2022-09-12T04:38:52;101315.00;;;8.10
25514;BMP180;48128;54.242;10.280;2022-09-12T04:41:21;101319.00;;;8.10
25514;BMP180;48128;54.242;10.280;2022-09-12T04:43:52;101314.00;;;8.10
25514;BMP180;48128;54.242;10.280;2022-09-12T04:46:34;101321.00;;;8.10
25514;BMP180;48128;54.242;10.280;2022-09-12T04:49:01;101319.00;;;8.00
25514;BMP180;48128;54.242;10.280;2022-09-12T04:51:30;101321.00;;;8.00
25514;BMP180;48128;54.242;10.280;2022-09-12T04:54:04;101321.00;;;8.00
25514;BMP180;48128;54.242;10.280;2022-09-12T04:56:32;101321.00;;;8.10
25514;BMP180;48128;54.242;10.280;2022-09-12T04:59:00;101323.00;;;8.10
25514;BMP180;48128;54.242;10.280;2022-09-12T05:01:27;101312.00;;;8.10
25514;BMP180;48128;54.242;10.280;2022-09-12T05:03:56;101313.00;;;8.20
25514;BMP180;48128;54.242;10.280;2022-09-12T05:06:32;101310.00;;;8.20
25514;BMP180;48128;54.242;10.280;2022-09-12T05:09:00;101318.00;;;8.20
25514;BMP180;48128;54.242;10.280;2022-09-12T05:11:30;101322.00;;;8.20
25514;BMP180;48128;54.242;10.280;2022-09-12T05:14:17;101313.00;;;8.20
25514;BMP180;48128;54.242;10.280;2022-09-12T05:16:44;101318.00;;;8.20
25514;BMP180;48128;54.242;10.280;2022-09-12T05:19:15;101325.00;;;8.20
25514;BMP180;48128;54.242;10.280;2022-09-12T05:21:41;101323.00;;;8.30
25514;BMP180;48128;54.242;10.280;2022-09-12T05:24:08;101327.00;;;8.30
25514;BMP180;48128;54.242;10.280;2022-09-12T05:26:36;101321.00;;;8.40
25514;BMP180;48128;54.242;10.280;2022-09-12T05:29:03;101306.00;;;8.40
25514;BMP180;48128;54.242;10.280;2022-09-12T05:31:29;101316.00;;;8.50
25514;BMP180;48128;54.242;10.280;2022-09-12T05:33:56;101319.00;;;8.60
25514;BMP180;48128;54.242;10.280;2022-09-12T05:36:28;101306.00;;;8.60
25514;BMP180;48128;54.242;10.280;2022-09-12T05:38:55;101304.00;;;8.70
25514;BMP180;48128;54.242;10.280;2022-09-12T05:41:24;101304.00;;;8.70
25514;BMP180;48128;54.242;10.280;2022-09-12T05:43:53;101306.00;;;8.70
25514;BMP180;48128;54.242;10.280;2022-09-12T05:46:22;101306.00;;;8.80
25514;BMP180;48128;54.242;10.280;2022-09-12T05:48:51;101302.00;;;8.80
25514;BMP180;48128;54.242;10.280;2022-09-12T05:51:24;101308.00;;;8.80
25514;BMP180;48128;54.242;10.280;2022-09-12T05:53:56;101301.00;;;8.90
25514;BMP180;48128;54.242;10.280;2022-09-12T05:56:26;101302.00;;;8.90
25514;BMP180;48128;54.242;10.280;2022-09-12T05:59:00;101309.00;;;8.90
25514;BMP180;48128;54.242;10.280;2022-09-12T06:01:29;101306.00;;;9.00
25514;BMP180;48128;54.242;10.280;2022-09-12T06:03:58;101308.00;;;9.00
25514;BMP180;48128;54.242;10.280;2022-09-12T06:06:29;101307.00;;;9.10
25514;BMP180;48128;54.242;10.280;2022-09-12T06:08:59;101315.00;;;9.10
25514;BMP180;48128;54.242;10.280;2022-09-12T06:11:29;101320.00;;;9.20
25514;BMP180;48128;54.242;10.280;2022-09-12T06:13:57;101317.00;;;9.20
25514;BMP180;48128;54.242;10.280;2022-09-12T06:16:26;101318.00;;;9.30
25514;BMP180;48128;54.242;10.280;2022-09-12T06:18:55;101316.00;;;9.30
25514;BMP180;48128;54.242;10.280;2022-09-12T06:21:23;101322.00;;;9.40
25514;BMP180;48128;54.242;10.280;2022-09-12T06:23:50;101315.00;;;9.50
25514;BMP180;48128;54.242;10.280;2022-09-12T06:26:17;101323.00;;;9.50
25514;BMP180;48128;54.242;10.280;2022-09-12T06:28:47;101328.00;;;9.60
25514;BMP180;48128;54.242;10.280;2022-09-12T06:31:29;101312.00;;;9.70
25514;BMP180;48128;54.242;10.280;2022-09-12T06:33:59;101307.00;;;9.80
25514;BMP180;48128;54.242;10.280;2022-09-12T06:36:31;101306.00;;;9.80
25514;BMP180;48128;54.242;10.280;2022-09-12T06:39:13;101314.00;;;9.90
25514;BMP180;48128;54.242;10.280;2022-09-12T06:41:40;101311.00;;;10.00
25514;BMP180;48128;54.242;10.280;2022-09-12T06:44:15;101306.00;;;10.00
25514;BMP180;48128;54.242;10.280;2022-09-12T06:46:42;101308.00;;;10.10
25514;BMP180;48128;54.242;10.280;2022-09-12T06:49:10;101305.00;;;10.10
25514;BMP180;48128;54.242;10.280;2022-09-12T06:51:38;101310.00;;;10.20
25514;BMP180;48128;54.242;10.280;2022-09-12T06:54:07;101310.00;;;10.30
25514;BMP180;48128;54.242;10.280;2022-09-12T06:56:34;101305.00;;;10.40
25514;BMP180;48128;54.242;10.280;2022-09-12T06:59:01;101306.00;;;10.50
25514;BMP180;48128;54.242;10.280;2022-09-12T07:01:29;101303.00;;;10.60
25514;BMP180;48128;54.242;10.280;2022-09-12T07:04:01;101308.00;;;10.70
25514;BMP180;48128;54.242;10.280;2022-09-12T07:06:39;101314.00;;;10.80
25514;BMP180;48128;54.242;10.280;2022-09-12T07:09:12;101312.00;;;11.00
25514;BMP180;48128;54.242;10.280;2022-09-12T07:11:40;101305.00;;;11.10
25514;BMP180;48128;54.242;10.280;2022-09-12T07:14:08;101300.00;;;11.20
25514;BMP180;48128;54.242;10.280;2022-09-12T07:16:35;101310.00;;;11.40
25514;BMP180;48128;54.242;10.280;2022-09-12T07:19:03;101307.00;;;11.50
25514;BMP180;48128;54.242;10.280;2022-09-12T07:21:31;101297.00;;;11.60
25514;BMP180;48128;54.242;10.280;2022-09-12T07:23:58;101288.00;;;11.80
25514;BMP180;48128;54.242;10.280;2022-09-12T07:26:26;101288.00;;;12.00
25514;BMP180;48128;54.242;10.280;2022-09-12T07:28:54;101290.00;;;12.20
25514;BMP180;48128;54.242;10.280;2022-09-12T07:31:38;101275.00;;;12.30
25514;BMP180;48128;54.242;10.280;2022-09-12T07:34:05;101278.00;;;12.50
25514;BMP180;48128;54.242;10.280;2022-09-12T07:36:32;101279.00;;;12.60
25514;BMP180;48128;54.242;10.280;2022-09-12T07:38:59;101285.00;;;12.80
25514;BMP180;48128;54.242;10.280;2022-09-12T07:41:28;101281.00;;;12.90
25514;BMP180;48128;54.242;10.280;2022-09-12T07:43:57;101270.00;;;13.00
25514;BMP180;48128;54.242;10.280;2022-09-12T07:46:25;101272.00;;;13.10
25514;BMP180;48128;54.242;10.280;2022-09-12T07:48:53;101278.00;;;13.20
25514;BMP180;48128;54.242;10.280;2022-09-12T07:51:21;101265.00;;;13.40
25514;BMP180;48128;54.242;10.280;2022-09-12T07:53:49;101276.00;;;13.50
25514;BMP180;48128;54.242;10.280;2022-09-12T07:56:17;101267.00;;;13.70
25514;BMP180;48128;54.242;10.280;2022-09-12T07:58:44;101281.00;;;13.90
25514;BMP180;48128;54.242;10.280;2022-09-12T08:01:12;101273.00;;;14.10
25514;BMP180;48128;54.242;10.280;2022-09-12T08:03:40;101294.00;;;14.20
25514;BMP180;48128;54.242;10.280;2022-09-12T08:06:16;101300.00;;;14.30
25514;BMP180;48128;54.242;10.280;2022-09-12T08:08:46;101310.00;;;14.40
25514;BMP180;48128;54.242;10.280;2022-09-12T08:11:15;101313.00;;;14.50
25514;BMP180;48128;54.242;10.280;2022-09-12T08:13:43;101311.00;;;14.60
25514;BMP180;48128;54.242;10.280;2022-09-12T08:16:18;101308.00;;;14.80
25514;BMP180;48128;54.242;10.280;2022-09-12T08:18:48;101321.00;;;14.90
25514;BMP180;48128;54.242;10.280;2022-09-12T08:21:17;101325.00;;;14.90
25514;BMP180;48128;54.242;10.280;2022-09-12T08:23:45;101310.00;;;15.00
25514;BMP180;48128;54.242;10.280;2022-09-12T08:26:12;101319.00;;;15.00
25514;BMP180;48128;54.242;10.280;2022-09-12T08:28:42;101323.00;;;15.10
25514;BMP180;48128;54.242;10.280;2022-09-12T08:31:13;101331.00;;;15.20
25514;BMP180;48128;54.242;10.280;2022-09-12T08:33:41;101341.00;;;15.30
25514;BMP180;48128;54.242;10.280;2022-09-12T08:36:20;101350.00;;;15.40
25514;BMP180;48128;54.242;10.280;2022-09-12T08:38:49;101369.00;;;15.60
25514;BMP180;48128;54.242;10.280;2022-09-12T08:43:49;101396.00;;;15.80
25514;BMP180;48128;54.242;10.280;2022-09-12T08:46:35;101366.00;;;15.90
25514;BMP180;48128;54.242;10.280;2022-09-12T08:49:03;101376.00;;;16.10
25514;BMP180;48128;54.242;10.280;2022-09-12T08:51:32;101384.00;;;16.20
25514;BMP180;48128;54.242;10.280;2022-09-12T08:54:00;101378.00;;;16.30
25514;BMP180;48128;54.242;10.280;2022-09-12T08:56:28;101383.00;;;16.40
25514;BMP180;48128;54.242;10.280;2022-09-12T08:58:57;101382.00;;;16.50
25514;BMP180;48128;54.242;10.280;2022-09-12T09:04:09;101400.00;;;16.70
25514;BMP180;48128;54.242;10.280;2022-09-12T09:20:32;101380.00;;;17.60
25514;BMP180;48128;54.242;10.280;2022-09-12T09:23:04;101418.00;;;17.80
25514;BMP180;48128;54.242;10.280;2022-09-12T09:25:36;101413.00;;;18.00
25514;BMP180;48128;54.242;10.280;2022-09-12T09:28:16;101402.00;;;18.00
25514;BMP180;48128;54.242;10.280;2022-09-12T09:30:45;101381.00;;;18.00
25514;BMP180;48128;54.242;10.280;2022-09-12T09:33:25;101372.00;;;18.00
25514;BMP180;48128;54.242;10.280;2022-09-12T09:43:42;101416.00;;;18.50
25514;BMP180;48128;54.242;10.280;2022-09-12T09:46:09;101402.00;;;18.60
25514;BMP180;48128;54.242;10.280;2022-09-12T09:48:40;101400.00;;;18.70
25514;BMP180;48128;54.242;10.280;2022-09-12T09:51:08;101382.00;;;18.70
25514;BMP180;48128;54.242;10.280;2022-09-12T09:53:47;101399.00;;;18.80
25514;BMP180;48128;54.242;10.280;2022-09-12T09:56:38;101411.00;;;18.90
25514;BMP180;48128;54.242;10.280;2022-09-12T09:59:14;101368.00;;;19.00
25514;BMP180;48128;54.242;10.280;2022-09-12T10:01:55;101380.00;;;19.10
25514;BMP180;48128;54.242;10.280;2022-09-12T10:04:37;101364.00;;;19.20
25514;BMP180;48128;54.242;10.280;2022-09-12T10:07:17;101357.00;;;19.30
25514;BMP180;48128;54.242;10.280;2022-09-12T10:12:29;101375.00;;;19.40
25514;BMP180;48128;54.242;10.280;2022-09-12T10:15:12;101360.00;;;19.50
25514;BMP180;48128;54.242;10.280;2022-09-12T10:17:43;101378.00;;;19.50
25514;BMP180;48128;54.242;10.280;2022-09-12T10:23:39;101361.00;;;19.60
25514;BMP180;48128;54.242;10.280;2022-09-12T10:25:52;101371.00;;;19.70
25514;BMP180;48128;54.242;10.280;2022-09-12T10:28:24;101370.00;;;19.70
25514;BMP180;48128;54.242;10.280;2022-09-12T10:30:54;101351.00;;;19.70
25514;BMP180;48128;54.242;10.280;2022-09-12T10:33:22;101385.00;;;19.80
25514;BMP180;48128;54.242;10.280;2022-09-12T10:35:52;101379.00;;;19.80
25514;BMP180;48128;54.242;10.280;2022-09-12T10:38:26;101336.00;;;19.80
25514;BMP180;48128;54.242;10.280;2022-09-12T10:41:04;101390.00;;;19.80
25514;BMP180;48128;54.242;10.280;2022-09-12T10:46:26;101386.00;;;19.90
25514;BMP180;48128;54.242;10.280;2022-09-12T10:51:49;101380.00;;;20.00
25514;BMP180;48128;54.242;10.280;2022-09-12T10:54:17;101362.00;;;20.00
25514;BMP180;48128;54.242;10.280;2022-09-12T10:59:36;101363.00;;;19.90
25514;BMP180;48128;54.242;10.280;2022-09-12T11:05:13;101331.00;;;19.90
25514;BMP180;48128;54.242;10.280;2022-09-12T11:08:02;101319.00;;;19.90
25514;BMP180;48128;54.242;10.280;2022-09-12T11:13:58;101300.00;;;19.90
25514;BMP180;48128;54.242;10.280;2022-09-12T11:16:54;101340.00;;;19.90
25514;BMP180;48128;54.242;10.280;2022-09-12T11:22:42;101347.00;;;20.10
25514;BMP180;48128;54.242;10.280;2022-09-12T11:28:19;101285.00;;;20.10
25514;BMP180;48128;54.242;10.280;2022-09-12T11:33:52;101307.00;;;20.30
25514;BMP180;48128;54.242;10.280;2022-09-12T11:39:38;101303.00;;;20.30
25514;BMP180;48128;54.242;10.280;2022-09-12T11:42:14;101312.00;;;20.30
25514;BMP180;48128;54.242;10.280;2022-09-12T11:44:49;101308.00;;;20.40
25514;BMP180;48128;54.242;10.280;2022-09-12T11:47:20;101314.00;;;20.40
25514;BMP180;48128;54.242;10.280;2022-09-12T11:49:51;101349.00;;;20.40
25514;BMP180;48128;54.242;10.280;2022-09-12T11:52:22;101327.00;;;20.50
25514;BMP180;48128;54.242;10.280;2022-09-12T11:55:04;101319.00;;;20.50
25514;BMP180;48128;54.242;10.280;2022-09-12T11:57:42;101304.00;;;20.50
25514;BMP180;48128;54.242;10.280;2022-09-12T12:00:21;101306.00;;;20.50
25514;BMP180;48128;54.242;10.280;2022-09-12T12:05:48;101261.00;;;20.50
25514;BMP180;48128;54.242;10.280;2022-09-12T12:08:22;101285.00;;;20.50
25514;BMP180;48128;54.242;10.280;2022-09-12T12:10:57;101300.00;;;20.50
25514;BMP180;48128;54.242;10.280;2022-09-12T12:15:59;101255.00;;;20.60
25514;BMP180;48128;54.242;10.280;2022-09-12T12:18:37;101280.00;;;20.60
25514;BMP180;48128;54.242;10.280;2022-09-12T12:34:38;101241.00;;;20.30
25514;BMP180;48128;54.242;10.280;2022-09-12T12:50:38;101236.00;;;20.60
25514;BMP180;48128;54.242;10.280;2022-09-12T12:53:00;101272.00;;;20.70
25514;BMP180;48128;54.242;10.280;2022-09-12T12:55:52;101297.00;;;20.80
25514;BMP180;48128;54.242;10.280;2022-09-12T13:01:21;101289.00;;;21.00
25514;BMP180;48128;54.242;10.280;2022-09-12T13:04:10;101265.00;;;21.00
25514;BMP180;48128;54.242;10.280;2022-09-12T13:06:40;101273.00;;;21.00
25514;BMP180;48128;54.242;10.280;2022-09-12T13:09:23;101297.00;;;21.10
25514;BMP180;48128;54.242;10.280;2022-09-12T13:14:54;101265.00;;;21.20
25514;BMP180;48128;54.242;10.280;2022-09-12T13:17:34;101243.00;;;21.10
25514;BMP180;48128;54.242;10.280;2022-09-12T13:20:26;101239.00;;;21.00
25514;BMP180;48128;54.242;10.280;2022-09-12T13:22:56;101222.00;;;21.10
25514;BMP180;48128;54.242;10.280;2022-09-12T13:25:28;101211.00;;;21.10
25514;BMP180;48128;54.242;10.280;2022-09-12T13:30:35;101252.00;;;21.00
25514;BMP180;48128;54.242;10.280;2022-09-12T13:33:16;101211.00;;;20.90
25514;BMP180;48128;54.242;10.280;2022-09-12T13:39:19;101226.00;;;20.90
25514;BMP180;48128;54.242;10.280;2022-09-12T13:44:50;101183.00;;;20.80
25514;BMP180;48128;54.242;10.280;2022-09-12T13:47:27;101234.00;;;21.00
25514;BMP180;48128;54.242;10.280;2022-09-12T13:49:55;101226.00;;;21.10
25514;BMP180;48128;54.242;10.280;2022-09-12T13:52:28;101197.00;;;21.20
25514;BMP180;48128;54.242;10.280;2022-09-12T13:54:57;101200.00;;;21.20
25514;BMP180;48128;54.242;10.280;2022-09-12T13:57:33;101173.00;;;21.10
25514;BMP180;48128;54.242;10.280;2022-09-12T14:00:05;101184.00;;;21.00
25514;BMP180;48128;54.242;10.280;2022-09-12T14:02:34;101178.00;;;20.90
25514;BMP180;48128;54.242;10.280;2022-09-12T14:05:16;101144.00;;;20.80
25514;BMP180;48128;54.242;10.280;2022-09-12T14:07:51;101145.00;;;20.60
25514;BMP180;48128;54.242;10.280;2022-09-12T14:12:49;101144.00;;;20.40
25514;BMP180;48128;54.242;10.280;2022-09-12T14:15:21;101168.00;;;20.40
25514;BMP180;48128;54.242;10.280;2022-09-12T14:17:52;101150.00;;;20.40
25514;BMP180;48128;54.242;10.280;2022-09-12T14:20:21;101136.00;;;20.40
25514;BMP180;48128;54.242;10.280;2022-09-12T14:22:52;101132.00;;;20.40
25514;BMP180;48128;54.242;10.280;2022-09-12T14:25:21;101139.00;;;20.50
25514;BMP180;48128;54.242;10.280;2022-09-12T14:27:51;101149.00;;;20.60
25514;BMP180;48128;54.242;10.280;2022-09-12T14:35:31;101189.00;;;20.50
25514;BMP180;48128;54.242;10.280;2022-09-12T14:38:20;101170.00;;;20.50
25514;BMP180;48128;54.242;10.280;2022-09-12T14:40:58;101146.00;;;20.60
25514;BMP180;48128;54.242;10.280;2022-09-12T14:43:31;101150.00;;;20.60
25514;BMP180;48128;54.242;10.280;2022-09-12T14:46:06;101130.00;;;20.70
25514;BMP180;48128;54.242;10.280;2022-09-12T14:48:46;101135.00;;;20.70
25514;BMP180;48128;54.242;10.280;2022-09-12T14:51:30;101164.00;;;20.70
25514;BMP180;48128;54.242;10.280;2022-09-12T14:53:58;101150.00;;;20.70
25514;BMP180;48128;54.242;10.280;2022-09-12T14:56:43;101123.00;;;20.80
25514;BMP180;48128;54.242;10.280;2022-09-12T15:04:48;101157.00;;;20.70
25514;BMP180;48128;54.242;10.280;2022-09-12T15:09:57;101141.00;;;20.50
25514;BMP180;48128;54.242;10.280;2022-09-12T15:12:27;101120.00;;;20.40
25514;BMP180;48128;54.242;10.280;2022-09-12T15:14:58;101112.00;;;20.30
25514;BMP180;48128;54.242;10.280;2022-09-12T15:17:26;101132.00;;;20.20
25514;BMP180;48128;54.242;10.280;2022-09-12T15:19:53;101082.00;;;20.10
25514;BMP180;48128;54.242;10.280;2022-09-12T15:22:21;101075.00;;;20.00
25514;BMP180;48128;54.242;10.280;2022-09-12T15:24:52;101065.00;;;20.00
25514;BMP180;48128;54.242;10.280;2022-09-12T15:27:19;101057.00;;;19.90
25514;BMP180;48128;54.242;10.280;2022-09-12T15:29:46;101081.00;;;19.90
25514;BMP180;48128;54.242;10.280;2022-09-12T15:32:13;101095.00;;;19.90
25514;BMP180;48128;54.242;10.280;2022-09-12T15:35:19;101037.00;;;19.80
25514;BMP180;48128;54.242;10.280;2022-09-12T15:37:55;101045.00;;;19.70
25514;BMP180;48128;54.242;10.280;2022-09-12T15:40:28;101074.00;;;19.70
25514;BMP180;48128;54.242;10.280;2022-09-12T15:42:57;101031.00;;;19.60
25514;BMP180;48128;54.242;10.280;2022-09-12T15:45:26;101042.00;;;19.50
25514;BMP180;48128;54.242;10.280;2022-09-12T15:47:55;101014.00;;;19.50
25514;BMP180;48128;54.242;10.280;2022-09-12T15:50:22;101034.00;;;19.40
25514;BMP180;48128;54.242;10.280;2022-09-12T15:52:49;101014.00;;;19.30
25514;BMP180;48128;54.242;10.280;2022-09-12T15:55:21;101012.00;;;19.20
25514;BMP180;48128;54.242;10.280;2022-09-12T15:57:48;100997.00;;;19.10
25514;BMP180;48128;54.242;10.280;2022-09-12T16:00:16;101007.00;;;19.10
25514;BMP180;48128;54.242;10.280;2022-09-12T16:02:45;101005.00;;;19.00
25514;BMP180;48128;54.242;10.280;2022-09-12T16:05:21;101008.00;;;18.90
25514;BMP180;48128;54.242;10.280;2022-09-12T16:07:50;101002.00;;;18.90
25514;BMP180;48128;54.242;10.280;2022-09-12T16:10:28;100984.00;;;18.80
25514;BMP180;48128;54.242;10.280;2022-09-12T16:12:56;100993.00;;;18.80
25514;BMP180;48128;54.242;10.280;2022-09-12T16:15:24;100990.00;;;18.80
25514;BMP180;48128;54.242;10.280;2022-09-12T16:17:51;100995.00;;;18.70
25514;BMP180;48128;54.242;10.280;2022-09-12T16:20:18;100979.00;;;18.70
25514;BMP180;48128;54.242;10.280;2022-09-12T16:22:46;100981.00;;;18.70
25514;BMP180;48128;54.242;10.280;2022-09-12T16:25:13;100970.00;;;18.70
25514;BMP180;48128;54.242;10.280;2022-09-12T16:27:40;100969.00;;;18.60
25514;BMP180;48128;54.242;10.280;2022-09-12T16:30:08;100964.00;;;18.60
25514;BMP180;48128;54.242;10.280;2022-09-12T16:32:36;100957.00;;;18.50
25514;BMP180;48128;54.242;10.280;2022-09-12T16:35:03;100944.00;;;18.50
25514;BMP180;48128;54.242;10.280;2022-09-12T16:37:30;100959.00;;;18.40
25514;BMP180;48128;54.242;10.280;2022-09-12T16:40:01;100957.00;;;18.40
25514;BMP180;48128;54.242;10.280;2022-09-12T16:42:28;100946.00;;;18.30
25514;BMP180;48128;54.242;10.280;2022-09-12T16:44:55;100939.00;;;18.30
25514;BMP180;48128;54.242;10.280;2022-09-12T16:47:22;100935.00;;;18.20
25514;BMP180;48128;54.242;10.280;2022-09-12T16:49:49;100940.00;;;18.20
25514;BMP180;48128;54.242;10.280;2022-09-12T16:52:17;100942.00;;;18.20
25514;BMP180;48128;54.242;10.280;2022-09-12T16:54:45;100949.00;;;18.10
25514;BMP180;48128;54.242;10.280;2022-09-12T16:57:11;100947.00;;;18.10
25514;BMP180;48128;54.242;10.280;2022-09-12T16:59:38;100941.00;;;18.10
25514;BMP180;48128;54.242;10.280;2022-09-12T17:02:12;100927.00;;;18.00